sensor_id;sensor_type;location;lat;lon;timestamp;pressure;altitude;pressure_sealevel;temperature;humidity
27984;BME280;15317;50.360;8.726;2023-06-10T00:01:53;99270.28;;;17.99;80.75
27984;BME280;15317;50.360;8.726;2023-06-10T00:07:04;99268.59;;;17.85;82.38
27984;BME280;15317;50.360;8.726;2023-06-10T00:12:11;99265.19;;;17.69;82.89
27984;BME280;15317;50.360;8.726;2023-06-10T00:17:15;99269.63;;;17.70;81.93
27984;BME280;15317;50.360;8.726;2023-06-10T00:22:20;99262.44;;;17.69;82.65
27984;BME280;15317;50.360;8.726;2023-06-10T00:27:24;99266.50;;;17.73;81.56
27984;BME280;15317;50.360;8.726;2023-06-10T00:32:33;99258.66;;;17.70;81.44
27984;BME280;15317;50.360;8.726;2023-06-10T00:37:38;99260.16;;;17.73;81.17
27984;BME280;15317;50.360;8.726;2023-06-10T00:42:42;99258.66;;;17.77;80.47
27984;BME280;15317;50.360;8.726;2023-06-10T00:47:45;99266.69;;;17.72;81.08
27984;BME280;15317;50.360;8.726;2023-06-10T00:52:50;99260.75;;;17.75;80.37
27984;BME280;15317;50.360;8.726;2023-06-10T00:57:56;99266.25;;;17.68;80.23
27984;BME280;15317;50.360;8.726;2023-06-10T01:02:59;99259.91;;;17.61;81.25
27984;BME280;15317;50.360;8.726;2023-06-10T01:08:09;99254.38;;;17.55;82.02
27984;BME280;15317;50.360;8.726;2023-06-10T01:13:15;99265.34;;;17.48;82.18
27984;BME280;15317;50.360;8.726;2023-06-10T01:18:20;99254.56;;;17.40;82.81
27984;BME280;15317;50.360;8.726;2023-06-10T01:23:25;99269.16;;;17.41;82.42
27984;BME280;15317;50.360;8.726;2023-06-10T01:28:33;99265.59;;;17.47;81.14
27984;BME280;15317;50.360;8.726;2023-06-10T01:33:42;99268.31;;;17.40;82.62
27984;BME280;15317;50.360;8.726;2023-06-10T01:38:49;99273.16;;;17.31;83.77
27984;BME280;15317;50.360;8.726;2023-06-10T01:43:54;99274.22;;;17.37;81.19
27984;BME280;15317;50.360;8.726;2023-06-10T01:48:57;99270.00;;;17.41;80.75
27984;BME280;15317;50.360;8.726;2023-06-10T01:54:02;99267.88;;;17.30;82.15
27984;BME280;15317;50.360;8.726;2023-06-10T01:59:05;99278.66;;;17.38;79.79
27984;BME280;15317;50.360;8.726;2023-06-10T02:04:08;99275.91;;;17.38;79.51
27984;BME280;15317;50.360;8.726;2023-06-10T02:09:13;99275.91;;;17.31;79.06
27984;BME280;15317;50.360;8.726;2023-06-10T02:14:16;99274.63;;;17.34;78.55
27984;BME280;15317;50.360;8.726;2023-06-10T02:19:19;99271.66;;;17.29;78.82
27984;BME280;15317;50.360;8.726;2023-06-10T02:24:25;99282.03;;;17.33;77.88
27984;BME280;15317;50.360;8.726;2023-06-10T02:29:28;99273.34;;;17.17;79.23
27984;BME280;15317;50.360;8.726;2023-06-10T02:34:31;99284.09;;;17.12;78.79
27984;BME280;15317;50.360;8.726;2023-06-10T02:39:36;99287.69;;;17.06;78.74
27984;BME280;15317;50.360;8.726;2023-06-10T02:44:39;99286.19;;;17.03;78.77
27984;BME280;15317;50.360;8.726;2023-06-10T02:49:43;99288.06;;;17.03;78.11
27984;BME280;15317;50.360;8.726;2023-06-10T02:54:47;99289.09;;;16.95;79.00
27984;BME280;15317;50.360;8.726;2023-06-10T02:59:51;99287.59;;;16.92;78.00
27984;BME280;15317;50.360;8.726;2023-06-10T03:04:55;99282.94;;;16.86;78.20
27984;BME280;15317;50.360;8.726;2023-06-10T03:10:00;99277.84;;;16.77;79.07
27984;BME280;15317;50.360;8.726;2023-06-10T03:15:04;99281.19;;;16.72;78.70
27984;BME280;15317;50.360;8.726;2023-06-10T03:20:09;99277.84;;;16.70;78.45
27984;BME280;15317;50.360;8.726;2023-06-10T03:25:14;99287.94;;;16.63;78.94
27984;BME280;15317;50.360;8.726;2023-06-10T03:30:18;99292.59;;;16.69;77.74
27984;BME280;15317;50.360;8.726;2023-06-10T03:35:21;99303.13;;;16.72;77.33
27984;BME280;15317;50.360;8.726;2023-06-10T03:40:26;99302.25;;;16.65;78.12
27984;BME280;15317;50.360;8.726;2023-06-10T03:45:29;99299.78;;;16.70;77.19
27984;BME280;15317;50.360;8.726;2023-06-10T03:50:34;99309.28;;;16.74;77.10
27984;BME280;15317;50.360;8.726;2023-06-10T03:55:39;99300.66;;;16.77;77.44
27984;BME280;15317;50.360;8.726;2023-06-10T04:00:43;99313.72;;;16.75;77.71
27984;BME280;15317;50.360;8.726;2023-06-10T04:05:47;99311.34;;;16.72;78.93
27984;BME280;15317;50.360;8.726;2023-06-10T04:10:52;99307.84;;;16.78;77.88
27984;BME280;15317;50.360;8.726;2023-06-10T04:15:56;99307.41;;;16.81;78.46
27984;BME280;15317;50.360;8.726;2023-06-10T04:21:00;99324.75;;;16.88;78.28
27984;BME280;15317;50.360;8.726;2023-06-10T04:26:05;99315.91;;;16.99;77.87
27984;BME280;15317;50.360;8.726;2023-06-10T04:31:09;99316.38;;;17.10;76.39
27984;BME280;15317;50.360;8.726;2023-06-10T04:36:12;99324.84;;;17.15;76.43
27984;BME280;15317;50.360;8.726;2023-06-10T04:41:17;99321.41;;;17.06;78.70
27984;BME280;15317;50.360;8.726;2023-06-10T04:46:21;99319.75;;;17.05;78.92
27984;BME280;15317;50.360;8.726;2023-06-10T04:51:25;99325.66;;;17.09;79.11
27984;BME280;15317;50.360;8.726;2023-06-10T04:56:30;99319.78;;;17.12;79.42
27984;BME280;15317;50.360;8.726;2023-06-10T05:01:34;99319.38;;;17.21;78.72
27984;BME280;15317;50.360;8.726;2023-06-10T05:06:37;99316.88;;;17.33;78.30
27984;BME280;15317;50.360;8.726;2023-06-10T05:11:42;99307.84;;;17.52;76.99
27984;BME280;15317;50.360;8.726;2023-06-10T05:16:45;99324.13;;;17.60;78.26
27984;BME280;15317;50.360;8.726;2023-06-10T05:21:48;99333.22;;;17.67;77.91
27984;BME280;15317;50.360;8.726;2023-06-10T05:26:53;99332.63;;;17.85;76.26
27984;BME280;15317;50.360;8.726;2023-06-10T05:31:56;99341.50;;;17.94;77.09
27984;BME280;15317;50.360;8.726;2023-06-10T05:37:03;99336.03;;;18.07;76.55
27984;BME280;15317;50.360;8.726;2023-06-10T05:42:08;99349.31;;;18.23;76.47
27984;BME280;15317;50.360;8.726;2023-06-10T05:47:12;99346.34;;;18.31;77.46
27984;BME280;15317;50.360;8.726;2023-06-10T05:52:15;99353.72;;;18.44;75.50
27984;BME280;15317;50.360;8.726;2023-06-10T05:57:20;99349.31;;;18.63;75.66
27984;BME280;15317;50.360;8.726;2023-06-10T06:02:23;99354.53;;;18.77;76.08
27984;BME280;15317;50.360;8.726;2023-06-10T06:07:27;99357.03;;;18.92;74.91
27984;BME280;15317;50.360;8.726;2023-06-10T06:12:32;99349.75;;;19.17;74.47
27984;BME280;15317;50.360;8.726;2023-06-10T06:17:35;99358.72;;;19.51;71.63
27984;BME280;15317;50.360;8.726;2023-06-10T06:22:38;99351.31;;;20.07;69.08
27984;BME280;15317;50.360;8.726;2023-06-10T06:27:43;99357.72;;;21.12;65.39
27984;BME280;15317;50.360;8.726;2023-06-10T06:32:47;99357.59;;;21.85;61.55
27984;BME280;15317;50.360;8.726;2023-06-10T06:37:50;99359.91;;;22.65;59.26
27984;BME280;15317;50.360;8.726;2023-06-10T06:42:55;99370.69;;;23.24;57.46
27984;BME280;15317;50.360;8.726;2023-06-10T06:47:58;99376.53;;;23.51;55.83
27984;BME280;15317;50.360;8.726;2023-06-10T06:53:01;99373.91;;;24.01;55.60
27984;BME280;15317;50.360;8.726;2023-06-10T06:58:06;99369.50;;;24.67;53.31
27984;BME280;15317;50.360;8.726;2023-06-10T07:03:09;99382.91;;;25.09;53.56
27984;BME280;15317;50.360;8.726;2023-06-10T07:08:13;99389.31;;;25.53;51.78
27984;BME280;15317;50.360;8.726;2023-06-10T07:13:17;99393.38;;;26.16;48.71
27984;BME280;15317;50.360;8.726;2023-06-10T07:18:21;99390.56;;;26.38;49.77
27984;BME280;15317;50.360;8.726;2023-06-10T07:23:24;99394.75;;;26.72;48.50
27984;BME280;15317;50.360;8.726;2023-06-10T07:28:29;99402.41;;;27.34;46.39
27984;BME280;15317;50.360;8.726;2023-06-10T07:33:32;99397.44;;;27.46;46.91
27984;BME280;15317;50.360;8.726;2023-06-10T07:38:35;99402.09;;;27.92;48.69
27984;BME280;15317;50.360;8.726;2023-06-10T07:43:40;99408.91;;;28.27;46.55
27984;BME280;15317;50.360;8.726;2023-06-10T07:48:43;99398.88;;;28.72;44.17
27984;BME280;15317;50.360;8.726;2023-06-10T07:53:46;99403.03;;;28.94;43.40
27984;BME280;15317;50.360;8.726;2023-06-10T07:58:50;99395.72;;;29.24;44.81
27984;BME280;15317;50.360;8.726;2023-06-10T08:03:53;99395.41;;;29.35;43.16
27984;BME280;15317;50.360;8.726;2023-06-10T08:08:57;99408.28;;;29.41;42.92
27984;BME280;15317;50.360;8.726;2023-06-10T08:14:01;99410.38;;;29.80;43.50
27984;BME280;15317;50.360;8.726;2023-06-10T08:19:05;99412.06;;;29.76;42.02
27984;BME280;15317;50.360;8.726;2023-06-10T08:24:09;99411.94;;;30.06;41.89
27984;BME280;15317;50.360;8.726;2023-06-10T08:29:14;99402.53;;;30.70;39.75
27984;BME280;15317;50.360;8.726;2023-06-10T08:34:17;99403.09;;;30.67;37.70
27984;BME280;15317;50.360;8.726;2023-06-10T08:39:20;99403.00;;;31.35;38.83
27984;BME280;15317;50.360;8.726;2023-06-10T08:44:28;99401.03;;;31.12;37.86
27984;BME280;15317;50.360;8.726;2023-06-10T08:49:34;99405.31;;;31.28;37.33
27984;BME280;15317;50.360;8.726;2023-06-10T08:54:42;99400.19;;;31.83;37.14
27984;BME280;15317;50.360;8.726;2023-06-10T08:59:48;99402.53;;;31.94;39.24
27984;BME280;15317;50.360;8.726;2023-06-10T09:04:51;99404.28;;;31.19;37.32
27984;BME280;15317;50.360;8.726;2023-06-10T09:09:55;99400.38;;;31.67;37.65
27984;BME280;15317;50.360;8.726;2023-06-10T09:15:00;99399.09;;;32.21;37.94
27984;BME280;15317;50.360;8.726;2023-06-10T09:20:07;99389.59;;;32.87;36.21
27984;BME280;15317;50.360;8.726;2023-06-10T09:25:13;99395.38;;;32.26;35.83
27984;BME280;15317;50.360;8.726;2023-06-10T09:30:28;99380.47;;;32.06;34.91
27984;BME280;15317;50.360;8.726;2023-06-10T09:35:32;99393.25;;;32.87;33.80
27984;BME280;15317;50.360;8.726;2023-06-10T09:40:48;99393.69;;;32.06;34.99
27984;BME280;15317;50.360;8.726;2023-06-10T09:45:55;99384.81;;;33.33;33.90
27984;BME280;15317;50.360;8.726;2023-06-10T09:50:59;99389.25;;;31.57;33.88
27984;BME280;15317;50.360;8.726;2023-06-10T09:56:02;99381.13;;;31.56;35.07
27984;BME280;15317;50.360;8.726;2023-06-10T10:01:08;99369.50;;;32.61;34.12
27984;BME280;15317;50.360;8.726;2023-06-10T10:06:12;99365.66;;;33.03;36.25
27984;BME280;15317;50.360;8.726;2023-06-10T10:11:17;99363.31;;;32.45;34.06
27984;BME280;15317;50.360;8.726;2023-06-10T10:16:26;99367.31;;;33.04;31.90
27984;BME280;15317;50.360;8.726;2023-06-10T10:21:37;99361.13;;;33.89;32.09
27984;BME280;15317;50.360;8.726;2023-06-10T10:26:41;99356.81;;;33.64;33.18
27984;BME280;15317;50.360;8.726;2023-06-10T10:31:50;99355.81;;;33.60;28.94
27984;BME280;15317;50.360;8.726;2023-06-10T10:36:54;99349.59;;;33.99;29.91
27984;BME280;15317;50.360;8.726;2023-06-10T10:41:57;99343.81;;;33.55;29.52
27984;BME280;15317;50.360;8.726;2023-06-10T10:47:04;99346.41;;;33.79;28.84
27984;BME280;15317;50.360;8.726;2023-06-10T10:52:11;99341.03;;;33.27;29.19
27984;BME280;15317;50.360;8.726;2023-06-10T10:57:17;99338.41;;;32.71;28.49
27984;BME280;15317;50.360;8.726;2023-06-10T11:02:37;99328.16;;;32.94;30.15
27984;BME280;15317;50.360;8.726;2023-06-10T11:07:52;99335.25;;;33.60;26.35
27984;BME280;15317;50.360;8.726;2023-06-10T11:12:56;99339.59;;;33.93;29.07
27984;BME280;15317;50.360;8.726;2023-06-10T11:18:11;99326.66;;;33.92;27.54
27984;BME280;15317;50.360;8.726;2023-06-10T11:23:37;99326.06;;;33.13;27.46
27984;BME280;15317;50.360;8.726;2023-06-10T11:29:00;99325.84;;;33.64;26.46
27984;BME280;15317;50.360;8.726;2023-06-10T11:34:06;99320.03;;;33.61;26.13
27984;BME280;15317;50.360;8.726;2023-06-10T11:39:10;99321.00;;;33.29;27.54
27984;BME280;15317;50.360;8.726;2023-06-10T11:44:13;99315.66;;;33.00;28.33
27984;BME280;15317;50.360;8.726;2023-06-10T11:49:22;99310.66;;;33.24;29.05
27984;BME280;15317;50.360;8.726;2023-06-10T11:54:27;99309.06;;;33.18;28.48
27984;BME280;15317;50.360;8.726;2023-06-10T11:59:30;99315.00;;;33.03;27.94
27984;BME280;15317;50.360;8.726;2023-06-10T12:04:35;99308.09;;;32.68;29.84
27984;BME280;15317;50.360;8.726;2023-06-10T12:09:39;99300.88;;;33.36;30.36
27984;BME280;15317;50.360;8.726;2023-06-10T12:14:53;99309.09;;;33.46;30.84
27984;BME280;15317;50.360;8.726;2023-06-10T12:20:01;99305.75;;;33.16;28.41
27984;BME280;15317;50.360;8.726;2023-06-10T12:25:06;99302.44;;;32.54;29.92
27984;BME280;15317;50.360;8.726;2023-06-10T12:30:19;99302.59;;;33.59;30.06
27984;BME280;15317;50.360;8.726;2023-06-10T12:35:25;99295.59;;;33.70;28.98
27984;BME280;15317;50.360;8.726;2023-06-10T12:40:29;99280.88;;;32.64;29.99
27984;BME280;15317;50.360;8.726;2023-06-10T12:45:34;99292.66;;;32.66;30.75
27984;BME280;15317;50.360;8.726;2023-06-10T12:50:41;99282.31;;;33.21;33.17
27984;BME280;15317;50.360;8.726;2023-06-10T12:55:45;99277.63;;;33.03;30.23
27984;BME280;15317;50.360;8.726;2023-06-10T13:00:49;99283.63;;;34.00;31.07
27984;BME280;15317;50.360;8.726;2023-06-10T13:05:55;99266.13;;;32.99;30.87
27984;BME280;15317;50.360;8.726;2023-06-10T13:10:59;99259.88;;;32.10;31.96
27984;BME280;15317;50.360;8.726;2023-06-10T13:16:02;99267.78;;;31.52;34.26
27984;BME280;15317;50.360;8.726;2023-06-10T13:21:07;99257.22;;;30.77;33.38
27984;BME280;15317;50.360;8.726;2023-06-10T13:26:10;99256.88;;;31.26;36.62
27984;BME280;15317;50.360;8.726;2023-06-10T13:31:13;99254.41;;;30.77;33.80
27984;BME280;15317;50.360;8.726;2023-06-10T13:36:18;99258.03;;;30.78;37.91
27984;BME280;15317;50.360;8.726;2023-06-10T13:41:21;99247.66;;;32.01;35.99
27984;BME280;15317;50.360;8.726;2023-06-10T13:46:24;99251.63;;;30.72;34.46
27984;BME280;15317;50.360;8.726;2023-06-10T13:51:29;99244.31;;;31.00;35.91
27984;BME280;15317;50.360;8.726;2023-06-10T13:56:33;99248.38;;;30.89;34.13
27984;BME280;15317;50.360;8.726;2023-06-10T14:01:39;99250.81;;;31.62;32.77
27984;BME280;15317;50.360;8.726;2023-06-10T14:06:45;99244.09;;;32.46;35.52
27984;BME280;15317;50.360;8.726;2023-06-10T14:11:50;99234.84;;;32.60;32.51
27984;BME280;15317;50.360;8.726;2023-06-10T14:16:53;99237.28;;;33.21;32.68
27984;BME280;15317;50.360;8.726;2023-06-10T14:21:58;99229.06;;;32.37;31.28
27984;BME280;15317;50.360;8.726;2023-06-10T14:27:01;99228.09;;;30.97;32.74
27984;BME280;15317;50.360;8.726;2023-06-10T14:32:05;99223.47;;;30.58;34.29
27984;BME280;15317;50.360;8.726;2023-06-10T14:37:12;99217.28;;;30.33;32.53
27984;BME280;15317;50.360;8.726;2023-06-10T14:42:15;99216.09;;;30.68;34.86
27984;BME280;15317;50.360;8.726;2023-06-10T14:47:18;99211.44;;;30.82;37.67
27984;BME280;15317;50.360;8.726;2023-06-10T14:52:22;99205.91;;;30.48;35.61
27984;BME280;15317;50.360;8.726;2023-06-10T14:57:25;99215.41;;;30.57;36.00
27984;BME280;15317;50.360;8.726;2023-06-10T15:02:29;99210.25;;;30.06;36.04
27984;BME280;15317;50.360;8.726;2023-06-10T15:07:33;99201.25;;;29.36;38.17
27984;BME280;15317;50.360;8.726;2023-06-10T15:12:36;99193.97;;;29.35;35.38
27984;BME280;15317;50.360;8.726;2023-06-10T15:17:39;99183.44;;;28.48;45.39
27984;BME280;15317;50.360;8.726;2023-06-10T15:22:44;99187.97;;;28.39;40.67
27984;BME280;15317;50.360;8.726;2023-06-10T15:27:47;99174.00;;;28.08;38.55
27984;BME280;15317;50.360;8.726;2023-06-10T15:32:50;99186.78;;;28.50;38.76
27984;BME280;15317;50.360;8.726;2023-06-10T15:37:55;99181.97;;;28.76;37.81
27984;BME280;15317;50.360;8.726;2023-06-10T15:42:58;99184.44;;;28.87;38.38
27984;BME280;15317;50.360;8.726;2023-06-10T15:48:02;99177.13;;;28.96;38.04
27984;BME280;15317;50.360;8.726;2023-06-10T15:53:06;99178.53;;;28.94;38.37
27984;BME280;15317;50.360;8.726;2023-06-10T15:58:09;99176.28;;;28.96;39.65
27984;BME280;15317;50.360;8.726;2023-06-10T16:03:13;99176.97;;;29.27;39.21
27984;BME280;15317;50.360;8.726;2023-06-10T16:08:17;99185.69;;;29.98;37.96
27984;BME280;15317;50.360;8.726;2023-06-10T16:13:20;99189.44;;;30.70;35.05
27984;BME280;15317;50.360;8.726;2023-06-10T16:18:24;99189.03;;;31.00;35.21
27984;BME280;15317;50.360;8.726;2023-06-10T16:23:28;99192.75;;;30.96;35.54
27984;BME280;15317;50.360;8.726;2023-06-10T16:28:31;99188.44;;;31.97;33.33
27984;BME280;15317;50.360;8.726;2023-06-10T16:33:34;99192.63;;;32.32;32.76
27984;BME280;15317;50.360;8.726;2023-06-10T16:38:39;99195.31;;;32.24;32.93
27984;BME280;15317;50.360;8.726;2023-06-10T16:43:43;99192.00;;;32.35;33.43
27984;BME280;15317;50.360;8.726;2023-06-10T16:48:46;99202.47;;;32.16;32.94
27984;BME280;15317;50.360;8.726;2023-06-10T16:53:50;99202.38;;;32.21;34.12
27984;BME280;15317;50.360;8.726;2023-06-10T16:58:53;99191.22;;;32.16;33.73
27984;BME280;15317;50.360;8.726;2023-06-10T17:03:57;99207.59;;;31.39;35.45
27984;BME280;15317;50.360;8.726;2023-06-10T17:09:01;99205.63;;;31.21;35.02
27984;BME280;15317;50.360;8.726;2023-06-10T17:14:05;99204.41;;;30.84;36.31
27984;BME280;15317;50.360;8.726;2023-06-10T17:19:09;99202.25;;;30.23;36.92
27984;BME280;15317;50.360;8.726;2023-06-10T17:24:13;99213.78;;;29.83;37.89
27984;BME280;15317;50.360;8.726;2023-06-10T17:29:17;99229.75;;;29.43;39.22
27984;BME280;15317;50.360;8.726;2023-06-10T17:34:20;99227.50;;;28.81;40.73
27984;BME280;15317;50.360;8.726;2023-06-10T17:39:24;99236.03;;;28.31;38.84
27984;BME280;15317;50.360;8.726;2023-06-10T17:44:28;99248.13;;;27.23;41.26
27984;BME280;15317;50.360;8.726;2023-06-10T17:49:33;99244.69;;;26.44;43.38
27984;BME280;15317;50.360;8.726;2023-06-10T17:54:37;99247.00;;;25.88;43.91
27984;BME280;15317;50.360;8.726;2023-06-10T17:59:40;99249.97;;;25.49;45.28
27984;BME280;15317;50.360;8.726;2023-06-10T18:04:44;99259.66;;;25.20;46.05
27984;BME280;15317;50.360;8.726;2023-06-10T18:09:49;99258.53;;;25.21;46.86
27984;BME280;15317;50.360;8.726;2023-06-10T18:14:52;99253.25;;;25.19;46.99
27984;BME280;15317;50.360;8.726;2023-06-10T18:19:55;99260.69;;;25.14;46.66
27984;BME280;15317;50.360;8.726;2023-06-10T18:24:59;99263.34;;;25.04;47.42
27984;BME280;15317;50.360;8.726;2023-06-10T18:30:07;99269.88;;;24.93;48.04
27984;BME280;15317;50.360;8.726;2023-06-10T18:35:11;99269.63;;;24.77;47.99
27984;BME280;15317;50.360;8.726;2023-06-10T18:40:15;99271.38;;;24.62;48.85
27984;BME280;15317;50.360;8.726;2023-06-10T18:45:20;99276.59;;;24.58;48.49
27984;BME280;15317;50.360;8.726;2023-06-10T18:50:25;99283.75;;;24.54;49.74
27984;BME280;15317;50.360;8.726;2023-06-10T18:55:29;99281.59;;;24.56;49.05
27984;BME280;15317;50.360;8.726;2023-06-10T19:00:37;99282.50;;;24.45;49.61
27984;BME280;15317;50.360;8.726;2023-06-10T19:05:40;99287.56;;;24.31;50.16
27984;BME280;15317;50.360;8.726;2023-06-10T19:10:45;99295.28;;;24.13;51.65
27984;BME280;15317;50.360;8.726;2023-06-10T19:15:48;99299.97;;;23.95;52.03
27984;BME280;15317;50.360;8.726;2023-06-10T19:20:51;99306.84;;;23.76;53.67
27984;BME280;15317;50.360;8.726;2023-06-10T19:25:56;99307.19;;;23.63;54.71
27984;BME280;15317;50.360;8.726;2023-06-10T19:31:01;99320.13;;;23.46;54.30
27984;BME280;15317;50.360;8.726;2023-06-10T19:36:05;99316.56;;;23.34;55.58
27984;BME280;15317;50.360;8.726;2023-06-10T19:41:09;99317.94;;;23.19;57.31
27984;BME280;15317;50.360;8.726;2023-06-10T19:46:12;99314.00;;;23.04;57.72
27984;BME280;15317;50.360;8.726;2023-06-10T19:51:19;99330.25;;;23.00;57.46
27984;BME280;15317;50.360;8.726;2023-06-10T19:56:24;99340.16;;;22.96;57.29
27984;BME280;15317;50.360;8.726;2023-06-10T20:01:27;99343.41;;;22.93;58.15
27984;BME280;15317;50.360;8.726;2023-06-10T20:06:31;99335.72;;;22.83;59.18
27984;BME280;15317;50.360;8.726;2023-06-10T20:11:35;99336.31;;;22.74;60.25
27984;BME280;15317;50.360;8.726;2023-06-10T20:16:39;99345.94;;;22.60;60.62
27984;BME280;15317;50.360;8.726;2023-06-10T20:21:42;99346.19;;;22.46;62.04
27984;BME280;15317;50.360;8.726;2023-06-10T20:26:46;99357.97;;;22.30;61.89
27984;BME280;15317;50.360;8.726;2023-06-10T20:31:49;99355.66;;;22.16;64.34
27984;BME280;15317;50.360;8.726;2023-06-10T20:36:52;99363.09;;;22.03;64.68
27984;BME280;15317;50.360;8.726;2023-06-10T20:41:58;99366.72;;;21.86;67.62
27984;BME280;15317;50.360;8.726;2023-06-10T20:47:01;99370.75;;;21.72;67.28
27984;BME280;15317;50.360;8.726;2023-06-10T20:52:05;99372.19;;;21.62;68.83
27984;BME280;15317;50.360;8.726;2023-06-10T20:57:10;99366.38;;;21.52;69.56
27984;BME280;15317;50.360;8.726;2023-06-10T21:02:13;99376.88;;;21.44;70.99
27984;BME280;15317;50.360;8.726;2023-06-10T21:07:16;99379.91;;;21.24;72.95
27984;BME280;15317;50.360;8.726;2023-06-10T21:12:21;99376.66;;;21.09;74.32
27984;BME280;15317;50.360;8.726;2023-06-10T21:17:24;99379.75;;;21.01;74.00
27984;BME280;15317;50.360;8.726;2023-06-10T21:22:27;99380.41;;;20.96;73.50
27984;BME280;15317;50.360;8.726;2023-06-10T21:27:32;99391.47;;;20.96;72.65
27984;BME280;15317;50.360;8.726;2023-06-10T21:32:35;99399.53;;;20.98;73.06
27984;BME280;15317;50.360;8.726;2023-06-10T21:37:38;99392.31;;;20.97;71.92
27984;BME280;15317;50.360;8.726;2023-06-10T21:42:43;99403.06;;;21.05;69.98
27984;BME280;15317;50.360;8.726;2023-06-10T21:47:46;99396.91;;;21.03;71.13
27984;BME280;15317;50.360;8.726;2023-06-10T21:52:49;99401.91;;;20.94;70.65
27984;BME280;15317;50.360;8.726;2023-06-10T21:57:54;99407.50;;;20.87;71.74
27984;BME280;15317;50.360;8.726;2023-06-10T22:02:57;99414.09;;;20.86;70.81
27984;BME280;15317;50.360;8.726;2023-06-10T22:08:02;99411.41;;;20.80;72.14
27984;BME280;15317;50.360;8.726;2023-06-10T22:13:06;99411.47;;;20.73;71.38
27984;BME280;15317;50.360;8.726;2023-06-10T22:18:10;99411.53;;;20.67;73.01
27984;BME280;15317;50.360;8.726;2023-06-10T22:23:18;99426.47;;;20.59;73.49
27984;BME280;15317;50.360;8.726;2023-06-10T22:28:22;99429.03;;;20.54;73.40
27984;BME280;15317;50.360;8.726;2023-06-10T22:33:26;99424.88;;;20.45;75.40
27984;BME280;15317;50.360;8.726;2023-06-10T22:38:29;99423.50;;;20.29;76.68
27984;BME280;15317;50.360;8.726;2023-06-10T22:43:34;99427.03;;;20.11;78.79
27984;BME280;15317;50.360;8.726;2023-06-10T22:48:37;99417.59;;;19.94;80.20
27984;BME280;15317;50.360;8.726;2023-06-10T22:53:40;99426.63;;;19.77;82.96
27984;BME280;15317;50.360;8.726;2023-06-10T22:58:45;99428.38;;;19.64;82.69
27984;BME280;15317;50.360;8.726;2023-06-10T23:03:48;99430.97;;;19.53;83.93
27984;BME280;15317;50.360;8.726;2023-06-10T23:08:52;99432.72;;;19.34;85.30
27984;BME280;15317;50.360;8.726;2023-06-10T23:13:56;99443.97;;;19.19;86.81
27984;BME280;15317;50.360;8.726;2023-06-10T23:19:00;99433.47;;;19.03;88.26
27984;BME280;15317;50.360;8.726;2023-06-10T23:24:04;99448.50;;;19.01;87.32
27984;BME280;15317;50.360;8.726;2023-06-10T23:29:09;99453.81;;;18.89;89.46
27984;BME280;15317;50.360;8.726;2023-06-10T23:34:12;99453.81;;;18.89;88.84
27984;BME280;15317;50.360;8.726;2023-06-10T23:39:15;99459.53;;;18.87;88.94
27984;BME280;15317;50.360;8.726;2023-06-10T23:44:20;99466.72;;;18.82;89.27
27984;BME280;15317;50.360;8.726;2023-06-10T23:49:23;99464.84;;;18.76;93.07
27984;BME280;15317;50.360;8.726;2023-06-10T23:54:27;99464.63;;;18.58;92.99
27984;BME280;15317;50.360;8.726;2023-06-10T23:59:32;99456.53;;;18.49;95.44
